sensor_id;sensor_type;location;lat;lon;timestamp;temperature;humidity
10597;DHT22;5346;48.766;8.674;2023-03-01T00:01:32;-4.70;99.90
10597;DHT22;5346;48.766;8.674;2023-03-01T00:03:59;-4.60;99.90
10597;DHT22;5346;48.766;8.674;2023-03-01T00:06:26;-4.60;99.90
10597;DHT22;5346;48.766;8.674;2023-03-01T00:09:02;-4.60;99.90
10597;DHT22;5346;48.766;8.674;2023-03-01T00:11:31;-4.80;99.90
10597;DHT22;5346;48.766;8.674;2023-03-01T00:14:06;-4.80;99.90
10597;DHT22;5346;48.766;8.674;2023-03-01T00:16:41;-4.80;1.00
10597;DHT22;5346;48.766;8.674;2023-03-01T00:19:18;-4.70;1.00
10597;DHT22;5346;48.766;8.674;2023-03-01T00:21:52;-4.70;1.00
10597;DHT22;5346;48.766;8.674;2023-03-01T00:24:25;-4.70;1.00
10597;DHT22;5346;48.766;8.674;2023-03-01T00:26:55;-4.70;1.00
10597;DHT22;5346;48.766;8.674;2023-03-01T00:29:29;-4.60;1.00
10597;DHT22;5346;48.766;8.674;2023-03-01T00:31:56;-4.60;1.00
10597;DHT22;5346;48.766;8.674;2023-03-01T00:34:29;-4.70;1.00
10597;DHT22;5346;48.766;8.674;2023-03-01T00:36:56;-4.80;1.00
10597;DHT22;5346;48.766;8.674;2023-03-01T00:39:38;-4.90;1.00
10597;DHT22;5346;48.766;8.674;2023-03-01T00:42:07;-5.10;1.00
10597;DHT22;5346;48.766;8.674;2023-03-01T00:44:41;-5.10;1.00
10597;DHT22;5346;48.766;8.674;2023-03-01T00:47:21;-5.10;1.00
10597;DHT22;5346;48.766;8.674;2023-03-01T00:50:02;-5.10;1.00
10597;DHT22;5346;48.766;8.674;2023-03-01T00:52:36;-5.20;1.00
10597;DHT22;5346;48.766;8.674;2023-03-01T00:55:04;-5.20;99.90
10597;DHT22;5346;48.766;8.674;2023-03-01T00:57:38;-5.20;99.90
10597;DHT22;5346;48.766;8.674;2023-03-01T01:00:12;-5.20;99.90
10597;DHT22;5346;48.766;8.674;2023-03-01T01:02:46;-5.20;99.90
10597;DHT22;5346;48.766;8.674;2023-03-01T01:05:14;-5.30;99.90
10597;DHT22;5346;48.766;8.674;2023-03-01T01:07:47;-5.40;99.90
10597;DHT22;5346;48.766;8.674;2023-03-01T01:10:15;-5.50;99.90
10597;DHT22;5346;48.766;8.674;2023-03-01T01:12:51;-5.40;1.00
10597;DHT22;5346;48.766;8.674;2023-03-01T01:15:24;-5.30;1.00
10597;DHT22;5346;48.766;8.674;2023-03-01T01:17:51;-5.30;1.00
10597;DHT22;5346;48.766;8.674;2023-03-01T01:20:25;-5.20;1.00
10597;DHT22;5346;48.766;8.674;2023-03-01T01:22:52;-5.20;1.00
10597;DHT22;5346;48.766;8.674;2023-03-01T01:25:19;-5.30;1.00
10597;DHT22;5346;48.766;8.674;2023-03-01T01:27:53;-5.40;99.90
10597;DHT22;5346;48.766;8.674;2023-03-01T01:30:26;-5.50;99.90
10597;DHT22;5346;48.766;8.674;2023-03-01T01:32:59;-5.60;1.00
10597;DHT22;5346;48.766;8.674;2023-03-01T01:35:32;-5.60;1.00
10597;DHT22;5346;48.766;8.674;2023-03-01T01:38:05;-5.50;1.00
10597;DHT22;5346;48.766;8.674;2023-03-01T01:40:32;-5.50;17.00
10597;DHT22;5346;48.766;8.674;2023-03-01T01:43:23;-5.50;6.20
10597;DHT22;5346;48.766;8.674;2023-03-01T01:45:58;-5.40;82.90
10597;DHT22;5346;48.766;8.674;2023-03-01T01:48:48;-5.40;62.70
10597;DHT22;5346;48.766;8.674;2023-03-01T01:51:31;-5.50;12.40
10597;DHT22;5346;48.766;8.674;2023-03-01T01:54:22;-5.40;95.90
10597;DHT22;5346;48.766;8.674;2023-03-01T01:57:04;-5.40;99.90
10597;DHT22;5346;48.766;8.674;2023-03-01T01:59:45;-5.40;99.90
10597;DHT22;5346;48.766;8.674;2023-03-01T02:02:24;-5.40;99.90
10597;DHT22;5346;48.766;8.674;2023-03-01T02:08:23;-5.40;99.90
10597;DHT22;5346;48.766;8.674;2023-03-01T02:11:03;-5.40;99.90
10597;DHT22;5346;48.766;8.674;2023-03-01T02:13:37;-5.40;99.90
10597;DHT22;5346;48.766;8.674;2023-03-01T02:16:08;-5.40;99.90
10597;DHT22;5346;48.766;8.674;2023-03-01T02:18:44;-5.50;99.90
10597;DHT22;5346;48.766;8.674;2023-03-01T02:24:47;-5.60;99.90
10597;DHT22;5346;48.766;8.674;2023-03-01T02:30:51;-5.60;99.90
10597;DHT22;5346;48.766;8.674;2023-03-01T02:33:45;-5.50;99.90
10597;DHT22;5346;48.766;8.674;2023-03-01T02:36:28;-5.50;99.90
10597;DHT22;5346;48.766;8.674;2023-03-01T02:39:05;-5.50;99.90
10597;DHT22;5346;48.766;8.674;2023-03-01T02:41:50;-5.50;99.90
10597;DHT22;5346;48.766;8.674;2023-03-01T02:44:26;-5.50;99.90
10597;DHT22;5346;48.766;8.674;2023-03-01T02:47:02;-5.50;99.90
10597;DHT22;5346;48.766;8.674;2023-03-01T02:49:37;-5.40;99.90
10597;DHT22;5346;48.766;8.674;2023-03-01T02:52:34;-5.40;99.90
10597;DHT22;5346;48.766;8.674;2023-03-01T02:55:18;-5.50;99.90
10597;DHT22;5346;48.766;8.674;2023-03-01T02:57:47;-5.60;99.90
10597;DHT22;5346;48.766;8.674;2023-03-01T03:00:41;-5.60;99.90
10597;DHT22;5346;48.766;8.674;2023-03-01T03:03:20;-5.70;99.90
10597;DHT22;5346;48.766;8.674;2023-03-01T03:05:55;-5.70;99.90
10597;DHT22;5346;48.766;8.674;2023-03-01T03:08:28;-5.70;99.90
10597;DHT22;5346;48.766;8.674;2023-03-01T03:10:55;-5.80;99.90
10597;DHT22;5346;48.766;8.674;2023-03-01T03:13:29;-5.90;99.90
10597;DHT22;5346;48.766;8.674;2023-03-01T03:15:56;-5.90;99.90
10597;DHT22;5346;48.766;8.674;2023-03-01T03:18:24;-5.90;1.00
10597;DHT22;5346;48.766;8.674;2023-03-01T03:21:01;-5.90;1.00
10597;DHT22;5346;48.766;8.674;2023-03-01T03:23:28;-5.80;1.00
10597;DHT22;5346;48.766;8.674;2023-03-01T03:26:03;-5.70;99.90
10597;DHT22;5346;48.766;8.674;2023-03-01T03:28:32;-5.60;99.90
10597;DHT22;5346;48.766;8.674;2023-03-01T03:31:07;-5.40;99.90
10597;DHT22;5346;48.766;8.674;2023-03-01T03:33:41;-5.30;99.90
10597;DHT22;5346;48.766;8.674;2023-03-01T03:36:20;-5.20;99.90
10597;DHT22;5346;48.766;8.674;2023-03-01T03:38:56;-5.00;99.90
10597;DHT22;5346;48.766;8.674;2023-03-01T03:41:30;-4.90;61.80
10597;DHT22;5346;48.766;8.674;2023-03-01T03:44:03;-4.80;1.00
10597;DHT22;5346;48.766;8.674;2023-03-01T03:46:37;-4.80;1.00
10597;DHT22;5346;48.766;8.674;2023-03-01T03:49:16;-4.70;1.00
10597;DHT22;5346;48.766;8.674;2023-03-01T03:51:45;-4.60;1.00
10597;DHT22;5346;48.766;8.674;2023-03-01T03:54:19;-4.60;99.90
10597;DHT22;5346;48.766;8.674;2023-03-01T03:56:46;-4.50;99.90
10597;DHT22;5346;48.766;8.674;2023-03-01T03:59:20;-4.50;99.90
10597;DHT22;5346;48.766;8.674;2023-03-01T04:01:54;-4.40;99.90
10597;DHT22;5346;48.766;8.674;2023-03-01T04:04:27;-4.30;99.90
10597;DHT22;5346;48.766;8.674;2023-03-01T04:06:54;-4.30;99.90
10597;DHT22;5346;48.766;8.674;2023-03-01T04:09:20;-4.30;66.20
10597;DHT22;5346;48.766;8.674;2023-03-01T04:11:54;-4.20;37.30
10597;DHT22;5346;48.766;8.674;2023-03-01T04:14:21;-4.20;30.00
10597;DHT22;5346;48.766;8.674;2023-03-01T04:16:55;-4.20;33.90
10597;DHT22;5346;48.766;8.674;2023-03-01T04:19:22;-4.20;1.00
10597;DHT22;5346;48.766;8.674;2023-03-01T04:21:56;-4.10;1.00
10597;DHT22;5346;48.766;8.674;2023-03-01T04:24:23;-4.10;1.00
10597;DHT22;5346;48.766;8.674;2023-03-01T04:26:57;-4.10;1.00
10597;DHT22;5346;48.766;8.674;2023-03-01T04:29:31;-4.10;1.00
10597;DHT22;5346;48.766;8.674;2023-03-01T04:31:58;-4.10;1.00
10597;DHT22;5346;48.766;8.674;2023-03-01T04:34:32;-4.10;1.00
10597;DHT22;5346;48.766;8.674;2023-03-01T04:36:59;-4.10;1.00
10597;DHT22;5346;48.766;8.674;2023-03-01T04:39:32;-4.00;1.40
10597;DHT22;5346;48.766;8.674;2023-03-01T04:42:06;-4.00;99.90
10597;DHT22;5346;48.766;8.674;2023-03-01T04:44:39;-4.00;99.90
10597;DHT22;5346;48.766;8.674;2023-03-01T04:47:13;-3.90;99.90
10597;DHT22;5346;48.766;8.674;2023-03-01T04:49:46;-3.90;99.90
10597;DHT22;5346;48.766;8.674;2023-03-01T04:52:19;-3.90;99.90
10597;DHT22;5346;48.766;8.674;2023-03-01T04:54:53;-3.90;99.90
10597;DHT22;5346;48.766;8.674;2023-03-01T04:57:20;-3.90;99.90
10597;DHT22;5346;48.766;8.674;2023-03-01T04:59:53;-3.90;99.90
10597;DHT22;5346;48.766;8.674;2023-03-01T05:02:20;-3.80;99.90
10597;DHT22;5346;48.766;8.674;2023-03-01T05:04:53;-3.80;99.90
10597;DHT22;5346;48.766;8.674;2023-03-01T05:07:30;-3.80;99.90
10597;DHT22;5346;48.766;8.674;2023-03-01T05:10:03;-3.70;99.90
10597;DHT22;5346;48.766;8.674;2023-03-01T05:12:39;-3.70;74.20
10597;DHT22;5346;48.766;8.674;2023-03-01T05:15:12;-3.70;57.00
10597;DHT22;5346;48.766;8.674;2023-03-01T05:17:46;-3.70;36.40
10597;DHT22;5346;48.766;8.674;2023-03-01T05:20:19;-3.70;43.80
10597;DHT22;5346;48.766;8.674;2023-03-01T05:22:58;-3.70;43.00
10597;DHT22;5346;48.766;8.674;2023-03-01T05:25:33;-3.70;5.60
10597;DHT22;5346;48.766;8.674;2023-03-01T05:28:11;-3.70;1.00
10597;DHT22;5346;48.766;8.674;2023-03-01T05:30:39;-3.70;1.00
10597;DHT22;5346;48.766;8.674;2023-03-01T05:33:14;-3.70;1.00
10597;DHT22;5346;48.766;8.674;2023-03-01T05:35:42;-3.70;1.00
10597;DHT22;5346;48.766;8.674;2023-03-01T05:38:18;-3.70;1.00
10597;DHT22;5346;48.766;8.674;2023-03-01T05:40:51;-3.70;1.00
10597;DHT22;5346;48.766;8.674;2023-03-01T05:43:25;-3.60;1.00
10597;DHT22;5346;48.766;8.674;2023-03-01T05:45:52;-3.60;1.00
10597;DHT22;5346;48.766;8.674;2023-03-01T05:48:26;-3.60;1.00
10597;DHT22;5346;48.766;8.674;2023-03-01T05:51:00;-3.60;1.00
10597;DHT22;5346;48.766;8.674;2023-03-01T05:53:34;-3.50;1.00
10597;DHT22;5346;48.766;8.674;2023-03-01T05:56:08;-3.50;1.00
10597;DHT22;5346;48.766;8.674;2023-03-01T05:58:36;-3.40;1.00
10597;DHT22;5346;48.766;8.674;2023-03-01T06:01:12;-3.30;1.00
10597;DHT22;5346;48.766;8.674;2023-03-01T06:03:46;-3.30;1.00
10597;DHT22;5346;48.766;8.674;2023-03-01T06:06:20;-3.20;1.00
10597;DHT22;5346;48.766;8.674;2023-03-01T06:08:47;-3.20;1.00
10597;DHT22;5346;48.766;8.674;2023-03-01T06:11:21;-3.20;99.90
10597;DHT22;5346;48.766;8.674;2023-03-01T06:13:55;-3.10;99.90
10597;DHT22;5346;48.766;8.674;2023-03-01T06:16:29;-3.10;99.90
10597;DHT22;5346;48.766;8.674;2023-03-01T06:18:56;-3.10;99.90
10597;DHT22;5346;48.766;8.674;2023-03-01T06:21:30;-3.10;99.90
10597;DHT22;5346;48.766;8.674;2023-03-01T06:24:03;-3.10;99.90
10597;DHT22;5346;48.766;8.674;2023-03-01T06:26:39;-3.10;99.90
10597;DHT22;5346;48.766;8.674;2023-03-01T06:29:06;-3.00;99.90
10597;DHT22;5346;48.766;8.674;2023-03-01T06:31:41;-3.00;99.90
10597;DHT22;5346;48.766;8.674;2023-03-01T06:34:08;-2.90;99.90
10597;DHT22;5346;48.766;8.674;2023-03-01T06:36:41;-2.90;99.90
10597;DHT22;5346;48.766;8.674;2023-03-01T06:39:08;-2.80;99.90
10597;DHT22;5346;48.766;8.674;2023-03-01T06:41:42;-2.80;58.10
10597;DHT22;5346;48.766;8.674;2023-03-01T06:44:15;-2.80;19.20
10597;DHT22;5346;48.766;8.674;2023-03-01T06:46:49;-2.80;1.00
10597;DHT22;5346;48.766;8.674;2023-03-01T06:49:22;-2.80;2.50
10597;DHT22;5346;48.766;8.674;2023-03-01T06:51:56;-2.80;1.00
10597;DHT22;5346;48.766;8.674;2023-03-01T06:54:24;-2.80;1.00
10597;DHT22;5346;48.766;8.674;2023-03-01T06:56:57;-2.70;22.00
10597;DHT22;5346;48.766;8.674;2023-03-01T06:59:24;-2.70;8.90
10597;DHT22;5346;48.766;8.674;2023-03-01T07:01:57;-2.70;3.80
10597;DHT22;5346;48.766;8.674;2023-03-01T07:04:30;-2.60;1.00
10597;DHT22;5346;48.766;8.674;2023-03-01T07:06:57;-2.60;1.00
10597;DHT22;5346;48.766;8.674;2023-03-01T07:09:32;-2.60;1.00
10597;DHT22;5346;48.766;8.674;2023-03-01T07:12:06;-2.60;1.00
10597;DHT22;5346;48.766;8.674;2023-03-01T07:14:33;-2.50;1.00
10597;DHT22;5346;48.766;8.674;2023-03-01T07:17:00;-2.50;1.00
10597;DHT22;5346;48.766;8.674;2023-03-01T07:19:34;-2.40;1.00
10597;DHT22;5346;48.766;8.674;2023-03-01T07:22:07;-2.40;1.00
10597;DHT22;5346;48.766;8.674;2023-03-01T07:24:43;-2.30;1.00
10597;DHT22;5346;48.766;8.674;2023-03-01T07:27:10;-2.20;1.00
10597;DHT22;5346;48.766;8.674;2023-03-01T07:29:44;-2.10;1.00
10597;DHT22;5346;48.766;8.674;2023-03-01T07:32:11;-1.90;1.00
10597;DHT22;5346;48.766;8.674;2023-03-01T07:34:45;-1.80;1.00
10597;DHT22;5346;48.766;8.674;2023-03-01T07:37:12;-1.80;1.00
10597;DHT22;5346;48.766;8.674;2023-03-01T07:39:45;-1.60;1.00
10597;DHT22;5346;48.766;8.674;2023-03-01T07:42:18;-1.60;99.90
10597;DHT22;5346;48.766;8.674;2023-03-01T07:44:52;-1.50;99.90
10597;DHT22;5346;48.766;8.674;2023-03-01T07:47:19;-1.40;99.90
10597;DHT22;5346;48.766;8.674;2023-03-01T07:49:59;-1.20;99.90
10597;DHT22;5346;48.766;8.674;2023-03-01T07:52:27;-1.10;99.90
10597;DHT22;5346;48.766;8.674;2023-03-01T07:55:01;-1.00;99.90
10597;DHT22;5346;48.766;8.674;2023-03-01T07:57:34;-1.00;99.90
10597;DHT22;5346;48.766;8.674;2023-03-01T08:00:01;-1.00;99.90
10597;DHT22;5346;48.766;8.674;2023-03-01T08:02:34;-1.10;99.90
10597;DHT22;5346;48.766;8.674;2023-03-01T08:05:08;-1.10;99.90
10597;DHT22;5346;48.766;8.674;2023-03-01T08:07:36;-1.00;99.90
10597;DHT22;5346;48.766;8.674;2023-03-01T08:10:10;-1.00;99.90
10597;DHT22;5346;48.766;8.674;2023-03-01T08:12:37;-0.70;99.90
10597;DHT22;5346;48.766;8.674;2023-03-01T08:15:11;-0.60;99.90
10597;DHT22;5346;48.766;8.674;2023-03-01T08:17:45;-0.50;99.90
10597;DHT22;5346;48.766;8.674;2023-03-01T08:20:19;-0.40;99.90
10597;DHT22;5346;48.766;8.674;2023-03-01T08:22:53;-0.20;99.90
10597;DHT22;5346;48.766;8.674;2023-03-01T08:25:27;-0.10;99.90
10597;DHT22;5346;48.766;8.674;2023-03-01T08:28:01;0.00;99.90
10597;DHT22;5346;48.766;8.674;2023-03-01T08:30:36;0.20;99.90
10597;DHT22;5346;48.766;8.674;2023-03-01T08:33:10;0.20;99.90
10597;DHT22;5346;48.766;8.674;2023-03-01T08:35:43;0.40;99.90
10597;DHT22;5346;48.766;8.674;2023-03-01T08:38:17;0.60;99.90
10597;DHT22;5346;48.766;8.674;2023-03-01T08:40:51;0.90;99.90
10597;DHT22;5346;48.766;8.674;2023-03-01T08:43:24;1.10;77.70
10597;DHT22;5346;48.766;8.674;2023-03-01T08:45:52;1.20;60.90
10597;DHT22;5346;48.766;8.674;2023-03-01T08:48:27;1.30;38.90
10597;DHT22;5346;48.766;8.674;2023-03-01T08:51:16;1.20;31.60
10597;DHT22;5346;48.766;8.674;2023-03-01T08:53:58;1.20;39.40
10597;DHT22;5346;48.766;8.674;2023-03-01T08:56:25;1.40;55.00
10597;DHT22;5346;48.766;8.674;2023-03-01T09:01:32;1.60;1.00
10597;DHT22;5346;48.766;8.674;2023-03-01T09:04:06;1.80;13.30
10597;DHT22;5346;48.766;8.674;2023-03-01T09:06:34;2.00;1.00
10597;DHT22;5346;48.766;8.674;2023-03-01T09:09:16;2.10;1.00
10597;DHT22;5346;48.766;8.674;2023-03-01T09:11:45;2.20;1.00
10597;DHT22;5346;48.766;8.674;2023-03-01T09:14:19;2.50;1.00
10597;DHT22;5346;48.766;8.674;2023-03-01T09:16:46;2.60;1.00
10597;DHT22;5346;48.766;8.674;2023-03-01T09:19:20;2.60;1.00
10597;DHT22;5346;48.766;8.674;2023-03-01T09:21:54;2.70;1.00
10597;DHT22;5346;48.766;8.674;2023-03-01T09:24:23;2.60;1.00
10597;DHT22;5346;48.766;8.674;2023-03-01T09:26:57;2.60;1.00
10597;DHT22;5346;48.766;8.674;2023-03-01T09:29:24;2.80;1.00
10597;DHT22;5346;48.766;8.674;2023-03-01T09:31:59;3.00;1.00
10597;DHT22;5346;48.766;8.674;2023-03-01T09:34:27;3.20;1.00
10597;DHT22;5346;48.766;8.674;2023-03-01T09:37:01;3.20;1.00
10597;DHT22;5346;48.766;8.674;2023-03-01T09:39:28;3.30;1.00
10597;DHT22;5346;48.766;8.674;2023-03-01T09:42:03;3.10;1.00
10597;DHT22;5346;48.766;8.674;2023-03-01T09:45:02;3.30;1.00
10597;DHT22;5346;48.766;8.674;2023-03-01T09:47:36;3.70;1.00
10597;DHT22;5346;48.766;8.674;2023-03-01T09:50:39;3.90;1.00
10597;DHT22;5346;48.766;8.674;2023-03-01T09:53:23;3.80;1.00
10597;DHT22;5346;48.766;8.674;2023-03-01T10:01:55;3.90;1.00
10597;DHT22;5346;48.766;8.674;2023-03-01T10:05:14;4.00;1.00
10597;DHT22;5346;48.766;8.674;2023-03-01T10:08:05;4.40;1.00
10597;DHT22;5346;48.766;8.674;2023-03-01T10:10:44;4.70;1.00
10597;DHT22;5346;48.766;8.674;2023-03-01T10:13:18;4.80;1.00
10597;DHT22;5346;48.766;8.674;2023-03-01T10:16:04;4.80;1.00
10597;DHT22;5346;48.766;8.674;2023-03-01T10:18:40;4.80;99.90
10597;DHT22;5346;48.766;8.674;2023-03-01T10:21:18;4.80;1.00
10597;DHT22;5346;48.766;8.674;2023-03-01T10:23:53;4.90;1.00
10597;DHT22;5346;48.766;8.674;2023-03-01T10:26:56;4.70;1.00
10597;DHT22;5346;48.766;8.674;2023-03-01T10:29:43;4.90;1.00
10597;DHT22;5346;48.766;8.674;2023-03-01T10:32:26;5.30;1.00
10597;DHT22;5346;48.766;8.674;2023-03-01T10:38:06;5.50;1.00
10597;DHT22;5346;48.766;8.674;2023-03-01T10:40:57;5.50;1.00
10597;DHT22;5346;48.766;8.674;2023-03-01T10:46:30;5.90;1.00
10597;DHT22;5346;48.766;8.674;2023-03-01T10:52:17;5.90;1.00
10597;DHT22;5346;48.766;8.674;2023-03-01T10:55:38;6.10;1.00
10597;DHT22;5346;48.766;8.674;2023-03-01T10:57:46;6.40;1.00
10597;DHT22;5346;48.766;8.674;2023-03-01T11:00:26;6.30;1.00
10597;DHT22;5346;48.766;8.674;2023-03-01T11:03:03;6.30;1.00
10597;DHT22;5346;48.766;8.674;2023-03-01T11:12:00;7.00;1.00
10597;DHT22;5346;48.766;8.674;2023-03-01T11:14:39;6.80;1.00
10597;DHT22;5346;48.766;8.674;2023-03-01T11:17:30;7.00;1.00
10597;DHT22;5346;48.766;8.674;2023-03-01T11:20:34;7.20;1.00
10597;DHT22;5346;48.766;8.674;2023-03-01T11:23:13;7.20;1.00
10597;DHT22;5346;48.766;8.674;2023-03-01T11:26:01;7.40;1.00
10597;DHT22;5346;48.766;8.674;2023-03-01T11:29:21;7.20;1.00
10597;DHT22;5346;48.766;8.674;2023-03-01T11:32:14;7.00;1.00
10597;DHT22;5346;48.766;8.674;2023-03-01T11:34:47;6.70;1.00
10597;DHT22;5346;48.766;8.674;2023-03-01T11:38:12;6.90;1.00
10597;DHT22;5346;48.766;8.674;2023-03-01T11:41:08;7.10;1.00
10597;DHT22;5346;48.766;8.674;2023-03-01T11:44:00;7.00;1.00
10597;DHT22;5346;48.766;8.674;2023-03-01T11:53:01;6.60;1.00
10597;DHT22;5346;48.766;8.674;2023-03-01T12:08:38;7.70;1.00
10597;DHT22;5346;48.766;8.674;2023-03-01T12:18:00;8.50;1.00
10597;DHT22;5346;48.766;8.674;2023-03-01T12:24:03;8.50;1.00
10597;DHT22;5346;48.766;8.674;2023-03-01T12:26:54;8.00;1.00
10597;DHT22;5346;48.766;8.674;2023-03-01T12:33:25;8.50;1.00
10597;DHT22;5346;48.766;8.674;2023-03-01T12:39:24;8.70;1.00
10597;DHT22;5346;48.766;8.674;2023-03-01T12:42:23;8.70;1.00
10597;DHT22;5346;48.766;8.674;2023-03-01T12:45:50;9.00;1.00
10597;DHT22;5346;48.766;8.674;2023-03-01T12:49:08;9.80;1.00
10597;DHT22;5346;48.766;8.674;2023-03-01T12:52:02;10.10;1.00
10597;DHT22;5346;48.766;8.674;2023-03-01T12:54:41;10.10;1.00
10597;DHT22;5346;48.766;8.674;2023-03-01T12:57:29;10.30;1.00
